sensor_id;sensor_type;location;lat;lon;timestamp;temperature;humidity
2106;DHT22;1059;52.548;13.408;2022-10-19T00:00:21;12.60;99.90
2106;DHT22;1059;52.548;13.408;2022-10-19T00:02:48;12.50;99.90
2106;DHT22;1059;52.548;13.408;2022-10-19T00:05:16;12.50;99.90
2106;DHT22;1059;52.548;13.408;2022-10-19T00:07:43;12.60;99.90
2106;DHT22;1059;52.548;13.408;2022-10-19T00:10:10;12.50;99.90
2106;DHT22;1059;52.548;13.408;2022-10-19T00:12:37;12.60;99.90
2106;DHT22;1059;52.548;13.408;2022-10-19T00:15:05;12.60;99.90
2106;DHT22;1059;52.548;13.408;2022-10-19T00:17:33;12.60;99.90
2106;DHT22;1059;52.548;13.408;2022-10-19T00:20:00;12.60;99.90
2106;DHT22;1059;52.548;13.408;2022-10-19T00:22:28;12.60;99.90
2106;DHT22;1059;52.548;13.408;2022-10-19T00:24:55;12.60;99.90
2106;DHT22;1059;52.548;13.408;2022-10-19T00:27:23;12.50;99.90
2106;DHT22;1059;52.548;13.408;2022-10-19T00:29:49;12.50;99.90
2106;DHT22;1059;52.548;13.408;2022-10-19T00:32:16;12.50;99.90
2106;DHT22;1059;52.548;13.408;2022-10-19T00:34:43;12.50;99.90
2106;DHT22;1059;52.548;13.408;2022-10-19T00:37:10;12.50;99.90
2106;DHT22;1059;52.548;13.408;2022-10-19T00:39:38;12.50;99.90
2106;DHT22;1059;52.548;13.408;2022-10-19T00:42:08;12.50;99.90
2106;DHT22;1059;52.548;13.408;2022-10-19T00:44:56;12.50;99.90
2106;DHT22;1059;52.548;13.408;2022-10-19T00:47:24;12.50;99.90
2106;DHT22;1059;52.548;13.408;2022-10-19T00:49:51;12.50;99.90
2106;DHT22;1059;52.548;13.408;2022-10-19T00:52:21;12.50;99.90
2106;DHT22;1059;52.548;13.408;2022-10-19T00:54:51;12.60;99.90
2106;DHT22;1059;52.548;13.408;2022-10-19T00:57:19;12.50;99.90
2106;DHT22;1059;52.548;13.408;2022-10-19T00:59:47;12.50;99.90
2106;DHT22;1059;52.548;13.408;2022-10-19T01:02:14;12.50;99.90
2106;DHT22;1059;52.548;13.408;2022-10-19T01:04:44;12.60;99.90
2106;DHT22;1059;52.548;13.408;2022-10-19T01:07:11;12.50;99.90
2106;DHT22;1059;52.548;13.408;2022-10-19T01:09:39;12.50;99.90
2106;DHT22;1059;52.548;13.408;2022-10-19T01:12:14;12.60;99.90
2106;DHT22;1059;52.548;13.408;2022-10-19T01:14:54;12.60;99.90
2106;DHT22;1059;52.548;13.408;2022-10-19T01:17:32;12.60;99.90
2106;DHT22;1059;52.548;13.408;2022-10-19T01:20:43;12.70;99.90
2106;DHT22;1059;52.548;13.408;2022-10-19T01:23:32;12.70;99.90
2106;DHT22;1059;52.548;13.408;2022-10-19T01:26:15;12.70;99.90
2106;DHT22;1059;52.548;13.408;2022-10-19T01:28:54;12.70;99.90
2106;DHT22;1059;52.548;13.408;2022-10-19T01:31:28;12.70;99.90
2106;DHT22;1059;52.548;13.408;2022-10-19T01:34:00;12.70;99.90
2106;DHT22;1059;52.548;13.408;2022-10-19T01:36:38;12.70;99.90
2106;DHT22;1059;52.548;13.408;2022-10-19T01:39:09;12.70;99.90
2106;DHT22;1059;52.548;13.408;2022-10-19T01:41:42;12.70;99.90
2106;DHT22;1059;52.548;13.408;2022-10-19T01:44:15;12.70;99.90
2106;DHT22;1059;52.548;13.408;2022-10-19T01:46:49;12.70;99.90
2106;DHT22;1059;52.548;13.408;2022-10-19T01:49:21;12.70;99.90
2106;DHT22;1059;52.548;13.408;2022-10-19T01:51:54;12.80;99.90
2106;DHT22;1059;52.548;13.408;2022-10-19T01:54:23;12.70;99.90
2106;DHT22;1059;52.548;13.408;2022-10-19T01:56:53;12.80;99.90
2106;DHT22;1059;52.548;13.408;2022-10-19T01:59:21;12.80;99.90
2106;DHT22;1059;52.548;13.408;2022-10-19T02:01:51;12.80;99.90
2106;DHT22;1059;52.548;13.408;2022-10-19T02:04:21;12.80;99.90
2106;DHT22;1059;52.548;13.408;2022-10-19T02:06:49;12.80;99.90
2106;DHT22;1059;52.548;13.408;2022-10-19T02:09:17;12.80;99.90
2106;DHT22;1059;52.548;13.408;2022-10-19T02:11:45;12.80;99.90
2106;DHT22;1059;52.548;13.408;2022-10-19T02:14:15;12.70;99.90
2106;DHT22;1059;52.548;13.408;2022-10-19T02:16:47;12.70;99.90
2106;DHT22;1059;52.548;13.408;2022-10-19T02:19:17;12.70;99.90
2106;DHT22;1059;52.548;13.408;2022-10-19T02:21:46;12.70;99.90
2106;DHT22;1059;52.548;13.408;2022-10-19T02:24:13;12.60;99.90
2106;DHT22;1059;52.548;13.408;2022-10-19T02:26:40;12.60;99.90
2106;DHT22;1059;52.548;13.408;2022-10-19T02:29:08;12.60;99.90
2106;DHT22;1059;52.548;13.408;2022-10-19T02:31:36;12.50;99.90
2106;DHT22;1059;52.548;13.408;2022-10-19T02:34:03;12.50;99.90
2106;DHT22;1059;52.548;13.408;2022-10-19T02:36:32;12.50;99.90
2106;DHT22;1059;52.548;13.408;2022-10-19T02:38:59;12.60;99.90
2106;DHT22;1059;52.548;13.408;2022-10-19T02:41:31;12.60;99.90
2106;DHT22;1059;52.548;13.408;2022-10-19T02:44:04;12.60;99.90
2106;DHT22;1059;52.548;13.408;2022-10-19T02:46:36;12.50;99.90
2106;DHT22;1059;52.548;13.408;2022-10-19T02:49:05;12.50;99.90
2106;DHT22;1059;52.548;13.408;2022-10-19T02:51:36;12.40;99.90
2106;DHT22;1059;52.548;13.408;2022-10-19T02:54:05;12.50;99.90
2106;DHT22;1059;52.548;13.408;2022-10-19T02:56:33;12.40;99.90
2106;DHT22;1059;52.548;13.408;2022-10-19T02:59:00;12.40;99.90
2106;DHT22;1059;52.548;13.408;2022-10-19T03:01:27;12.40;99.90
2106;DHT22;1059;52.548;13.408;2022-10-19T03:03:54;12.40;99.90
2106;DHT22;1059;52.548;13.408;2022-10-19T03:06:21;12.40;99.90
2106;DHT22;1059;52.548;13.408;2022-10-19T03:08:50;12.40;99.90
2106;DHT22;1059;52.548;13.408;2022-10-19T03:11:16;12.40;99.90
2106;DHT22;1059;52.548;13.408;2022-10-19T03:13:43;12.40;99.90
2106;DHT22;1059;52.548;13.408;2022-10-19T03:16:11;12.40;99.90
2106;DHT22;1059;52.548;13.408;2022-10-19T03:18:38;12.40;99.90
2106;DHT22;1059;52.548;13.408;2022-10-19T03:21:07;12.40;99.90
2106;DHT22;1059;52.548;13.408;2022-10-19T03:23:35;12.40;99.90
2106;DHT22;1059;52.548;13.408;2022-10-19T03:26:03;12.40;99.90
2106;DHT22;1059;52.548;13.408;2022-10-19T03:28:31;12.40;99.90
2106;DHT22;1059;52.548;13.408;2022-10-19T03:30:58;12.40;99.90
2106;DHT22;1059;52.548;13.408;2022-10-19T03:33:25;12.50;99.90
2106;DHT22;1059;52.548;13.408;2022-10-19T03:36:13;12.50;99.90
2106;DHT22;1059;52.548;13.408;2022-10-19T03:38:40;12.50;99.90
2106;DHT22;1059;52.548;13.408;2022-10-19T03:41:09;12.50;99.90
2106;DHT22;1059;52.548;13.408;2022-10-19T03:43:35;12.50;99.90
2106;DHT22;1059;52.548;13.408;2022-10-19T03:46:02;12.50;99.90
2106;DHT22;1059;52.548;13.408;2022-10-19T03:48:29;12.50;99.90
2106;DHT22;1059;52.548;13.408;2022-10-19T03:51:00;12.50;99.90
2106;DHT22;1059;52.548;13.408;2022-10-19T03:53:27;12.50;99.90
2106;DHT22;1059;52.548;13.408;2022-10-19T03:56:00;12.50;99.90
2106;DHT22;1059;52.548;13.408;2022-10-19T03:58:31;12.60;99.90
2106;DHT22;1059;52.548;13.408;2022-10-19T04:00:58;12.60;99.90
2106;DHT22;1059;52.548;13.408;2022-10-19T04:03:25;12.60;99.90
2106;DHT22;1059;52.548;13.408;2022-10-19T04:06:00;12.60;99.90
2106;DHT22;1059;52.548;13.408;2022-10-19T04:08:27;12.60;99.90
2106;DHT22;1059;52.548;13.408;2022-10-19T04:10:58;12.60;99.90
2106;DHT22;1059;52.548;13.408;2022-10-19T04:13:25;12.50;99.90
2106;DHT22;1059;52.548;13.408;2022-10-19T04:15:54;12.50;99.90
2106;DHT22;1059;52.548;13.408;2022-10-19T04:18:20;12.50;99.90
2106;DHT22;1059;52.548;13.408;2022-10-19T04:20:47;12.50;99.90
2106;DHT22;1059;52.548;13.408;2022-10-19T04:23:14;12.40;99.90
2106;DHT22;1059;52.548;13.408;2022-10-19T04:25:41;12.40;99.90
2106;DHT22;1059;52.548;13.408;2022-10-19T04:28:08;12.40;99.90
2106;DHT22;1059;52.548;13.408;2022-10-19T04:30:34;12.30;99.90
2106;DHT22;1059;52.548;13.408;2022-10-19T04:33:03;12.30;99.90
2106;DHT22;1059;52.548;13.408;2022-10-19T04:35:30;12.30;99.90
2106;DHT22;1059;52.548;13.408;2022-10-19T04:37:57;12.30;99.90
2106;DHT22;1059;52.548;13.408;2022-10-19T04:40:24;12.40;99.90
2106;DHT22;1059;52.548;13.408;2022-10-19T04:42:51;12.40;99.90
2106;DHT22;1059;52.548;13.408;2022-10-19T04:45:18;12.50;99.90
2106;DHT22;1059;52.548;13.408;2022-10-19T04:47:45;12.50;99.90
2106;DHT22;1059;52.548;13.408;2022-10-19T04:50:13;12.40;99.90
2106;DHT22;1059;52.548;13.408;2022-10-19T04:52:42;12.50;99.90
2106;DHT22;1059;52.548;13.408;2022-10-19T04:55:09;12.40;99.90
2106;DHT22;1059;52.548;13.408;2022-10-19T04:57:36;12.40;99.90
2106;DHT22;1059;52.548;13.408;2022-10-19T05:00:04;12.40;99.90
2106;DHT22;1059;52.548;13.408;2022-10-19T05:02:31;12.40;99.90
2106;DHT22;1059;52.548;13.408;2022-10-19T05:04:58;12.40;99.90
2106;DHT22;1059;52.548;13.408;2022-10-19T05:07:26;12.40;99.90
2106;DHT22;1059;52.548;13.408;2022-10-19T05:09:52;12.40;99.90
2106;DHT22;1059;52.548;13.408;2022-10-19T05:12:19;12.40;99.90
2106;DHT22;1059;52.548;13.408;2022-10-19T05:14:46;12.40;99.90
2106;DHT22;1059;52.548;13.408;2022-10-19T05:17:13;12.40;99.90
2106;DHT22;1059;52.548;13.408;2022-10-19T05:19:40;12.30;99.90
2106;DHT22;1059;52.548;13.408;2022-10-19T05:22:07;12.40;99.90
2106;DHT22;1059;52.548;13.408;2022-10-19T05:24:35;12.40;99.90
2106;DHT22;1059;52.548;13.408;2022-10-19T05:27:02;12.30;99.90
2106;DHT22;1059;52.548;13.408;2022-10-19T05:29:29;12.30;99.90
2106;DHT22;1059;52.548;13.408;2022-10-19T05:31:58;12.20;99.90
2106;DHT22;1059;52.548;13.408;2022-10-19T05:34:25;12.10;99.90
2106;DHT22;1059;52.548;13.408;2022-10-19T05:36:54;12.10;99.90
2106;DHT22;1059;52.548;13.408;2022-10-19T05:39:21;12.00;99.90
2106;DHT22;1059;52.548;13.408;2022-10-19T05:41:52;12.00;99.90
2106;DHT22;1059;52.548;13.408;2022-10-19T05:44:21;11.90;99.90
2106;DHT22;1059;52.548;13.408;2022-10-19T05:46:50;11.90;99.90
2106;DHT22;1059;52.548;13.408;2022-10-19T05:49:18;11.90;99.90
2106;DHT22;1059;52.548;13.408;2022-10-19T05:51:45;11.90;99.90
2106;DHT22;1059;52.548;13.408;2022-10-19T05:54:13;11.90;99.90
2106;DHT22;1059;52.548;13.408;2022-10-19T05:56:40;11.90;99.90
2106;DHT22;1059;52.548;13.408;2022-10-19T05:59:12;11.90;99.90
2106;DHT22;1059;52.548;13.408;2022-10-19T06:01:39;11.90;99.90
2106;DHT22;1059;52.548;13.408;2022-10-19T06:04:06;11.90;99.90
2106;DHT22;1059;52.548;13.408;2022-10-19T06:06:35;11.90;99.90
2106;DHT22;1059;52.548;13.408;2022-10-19T06:09:02;11.90;99.90
2106;DHT22;1059;52.548;13.408;2022-10-19T06:11:31;11.90;99.90
2106;DHT22;1059;52.548;13.408;2022-10-19T06:14:00;11.90;99.90
2106;DHT22;1059;52.548;13.408;2022-10-19T06:16:31;11.90;99.90
2106;DHT22;1059;52.548;13.408;2022-10-19T06:18:58;12.00;99.90
2106;DHT22;1059;52.548;13.408;2022-10-19T06:21:27;12.00;99.90
2106;DHT22;1059;52.548;13.408;2022-10-19T06:23:55;12.10;99.90
2106;DHT22;1059;52.548;13.408;2022-10-19T06:26:23;12.10;99.90
2106;DHT22;1059;52.548;13.408;2022-10-19T06:28:50;12.10;99.90
2106;DHT22;1059;52.548;13.408;2022-10-19T06:31:17;12.10;99.90
2106;DHT22;1059;52.548;13.408;2022-10-19T06:33:46;12.10;99.90
2106;DHT22;1059;52.548;13.408;2022-10-19T06:36:15;12.10;99.90
2106;DHT22;1059;52.548;13.408;2022-10-19T06:38:42;12.20;99.90
2106;DHT22;1059;52.548;13.408;2022-10-19T06:41:10;12.20;99.90
2106;DHT22;1059;52.548;13.408;2022-10-19T06:43:37;12.20;99.90
2106;DHT22;1059;52.548;13.408;2022-10-19T06:46:05;12.10;99.90
2106;DHT22;1059;52.548;13.408;2022-10-19T06:48:32;12.10;99.90
2106;DHT22;1059;52.548;13.408;2022-10-19T06:51:03;12.10;99.90
2106;DHT22;1059;52.548;13.408;2022-10-19T06:53:31;12.10;99.90
2106;DHT22;1059;52.548;13.408;2022-10-19T06:55:59;12.10;99.90
2106;DHT22;1059;52.548;13.408;2022-10-19T06:58:26;12.10;99.90
2106;DHT22;1059;52.548;13.408;2022-10-19T07:00:54;12.10;99.90
2106;DHT22;1059;52.548;13.408;2022-10-19T07:03:22;12.10;99.90
2106;DHT22;1059;52.548;13.408;2022-10-19T07:05:53;12.10;99.90
2106;DHT22;1059;52.548;13.408;2022-10-19T07:08:21;12.10;99.90
2106;DHT22;1059;52.548;13.408;2022-10-19T07:10:49;12.20;99.90
2106;DHT22;1059;52.548;13.408;2022-10-19T07:13:16;12.20;99.90
2106;DHT22;1059;52.548;13.408;2022-10-19T07:15:46;12.20;99.90
2106;DHT22;1059;52.548;13.408;2022-10-19T07:18:13;12.20;99.90
2106;DHT22;1059;52.548;13.408;2022-10-19T07:20:40;12.30;99.90
2106;DHT22;1059;52.548;13.408;2022-10-19T07:23:07;12.30;99.90
2106;DHT22;1059;52.548;13.408;2022-10-19T07:25:36;12.40;99.90
2106;DHT22;1059;52.548;13.408;2022-10-19T07:28:03;12.50;99.90
2106;DHT22;1059;52.548;13.408;2022-10-19T07:30:30;12.50;99.90
2106;DHT22;1059;52.548;13.408;2022-10-19T07:32:57;12.60;99.90
2106;DHT22;1059;52.548;13.408;2022-10-19T07:35:24;12.70;99.90
2106;DHT22;1059;52.548;13.408;2022-10-19T07:37:50;12.80;99.90
2106;DHT22;1059;52.548;13.408;2022-10-19T07:40:17;12.80;99.90
2106;DHT22;1059;52.548;13.408;2022-10-19T07:42:45;12.90;99.90
2106;DHT22;1059;52.548;13.408;2022-10-19T07:45:12;12.90;99.90
2106;DHT22;1059;52.548;13.408;2022-10-19T07:47:39;12.90;99.90
2106;DHT22;1059;52.548;13.408;2022-10-19T07:50:06;12.90;99.90
2106;DHT22;1059;52.548;13.408;2022-10-19T07:52:33;13.00;99.90
2106;DHT22;1059;52.548;13.408;2022-10-19T07:55:00;13.00;99.90
2106;DHT22;1059;52.548;13.408;2022-10-19T07:57:27;13.10;99.90
2106;DHT22;1059;52.548;13.408;2022-10-19T07:59:55;13.10;99.90
2106;DHT22;1059;52.548;13.408;2022-10-19T08:02:22;13.10;99.90
2106;DHT22;1059;52.548;13.408;2022-10-19T08:04:49;13.20;99.90
2106;DHT22;1059;52.548;13.408;2022-10-19T08:07:16;13.20;99.90
2106;DHT22;1059;52.548;13.408;2022-10-19T08:09:43;13.20;99.90
2106;DHT22;1059;52.548;13.408;2022-10-19T08:12:10;13.30;99.90
2106;DHT22;1059;52.548;13.408;2022-10-19T08:14:37;13.30;99.90
2106;DHT22;1059;52.548;13.408;2022-10-19T08:17:05;13.20;99.90
2106;DHT22;1059;52.548;13.408;2022-10-19T08:19:33;13.20;99.90
2106;DHT22;1059;52.548;13.408;2022-10-19T08:22:00;13.20;99.90
2106;DHT22;1059;52.548;13.408;2022-10-19T08:24:27;13.30;99.90
2106;DHT22;1059;52.548;13.408;2022-10-19T08:26:54;13.30;99.90
2106;DHT22;1059;52.548;13.408;2022-10-19T08:29:21;13.30;99.90
2106;DHT22;1059;52.548;13.408;2022-10-19T08:31:48;13.40;99.90
2106;DHT22;1059;52.548;13.408;2022-10-19T08:34:16;13.40;99.90
2106;DHT22;1059;52.548;13.408;2022-10-19T08:36:43;13.40;99.90
2106;DHT22;1059;52.548;13.408;2022-10-19T08:39:11;13.50;99.90
2106;DHT22;1059;52.548;13.408;2022-10-19T08:41:58;13.60;99.90
2106;DHT22;1059;52.548;13.408;2022-10-19T08:47:48;13.80;99.90
2106;DHT22;1059;52.548;13.408;2022-10-19T08:50:22;13.80;99.90
2106;DHT22;1059;52.548;13.408;2022-10-19T08:52:54;13.90;99.90
2106;DHT22;1059;52.548;13.408;2022-10-19T08:55:31;14.10;99.90
2106;DHT22;1059;52.548;13.408;2022-10-19T08:58:09;14.10;99.90
2106;DHT22;1059;52.548;13.408;2022-10-19T09:00:48;14.10;99.90
2106;DHT22;1059;52.548;13.408;2022-10-19T09:03:22;14.10;99.90
2106;DHT22;1059;52.548;13.408;2022-10-19T09:05:59;14.10;99.90
2106;DHT22;1059;52.548;13.408;2022-10-19T09:08:27;14.10;99.90
2106;DHT22;1059;52.548;13.408;2022-10-19T09:10:54;14.10;99.90
2106;DHT22;1059;52.548;13.408;2022-10-19T09:13:33;14.20;99.90
2106;DHT22;1059;52.548;13.408;2022-10-19T09:16:02;14.30;99.90
2106;DHT22;1059;52.548;13.408;2022-10-19T09:18:32;14.40;99.90
2106;DHT22;1059;52.548;13.408;2022-10-19T09:21:03;14.50;99.90
2106;DHT22;1059;52.548;13.408;2022-10-19T09:23:37;14.50;99.90
2106;DHT22;1059;52.548;13.408;2022-10-19T09:26:09;14.60;99.90
2106;DHT22;1059;52.548;13.408;2022-10-19T09:28:44;14.60;99.90
2106;DHT22;1059;52.548;13.408;2022-10-19T09:31:15;14.60;99.90
2106;DHT22;1059;52.548;13.408;2022-10-19T09:33:50;14.50;99.90
2106;DHT22;1059;52.548;13.408;2022-10-19T09:36:22;14.50;99.90
2106;DHT22;1059;52.548;13.408;2022-10-19T09:38:49;14.50;99.90
2106;DHT22;1059;52.548;13.408;2022-10-19T09:41:17;14.40;99.90
2106;DHT22;1059;52.548;13.408;2022-10-19T09:43:49;14.40;99.90
2106;DHT22;1059;52.548;13.408;2022-10-19T09:46:28;14.50;99.90
2106;DHT22;1059;52.548;13.408;2022-10-19T09:48:58;14.60;99.90
2106;DHT22;1059;52.548;13.408;2022-10-19T09:51:38;14.70;99.90
2106;DHT22;1059;52.548;13.408;2022-10-19T09:54:07;14.80;99.90
2106;DHT22;1059;52.548;13.408;2022-10-19T09:56:52;14.80;99.90
2106;DHT22;1059;52.548;13.408;2022-10-19T09:59:22;14.80;99.90
2106;DHT22;1059;52.548;13.408;2022-10-19T10:01:59;14.80;99.90
2106;DHT22;1059;52.548;13.408;2022-10-19T10:04:28;14.80;99.90
2106;DHT22;1059;52.548;13.408;2022-10-19T10:06:57;14.90;99.90
2106;DHT22;1059;52.548;13.408;2022-10-19T10:09:26;14.90;99.90
2106;DHT22;1059;52.548;13.408;2022-10-19T10:11:57;14.90;99.90
2106;DHT22;1059;52.548;13.408;2022-10-19T10:14:27;14.90;99.90
2106;DHT22;1059;52.548;13.408;2022-10-19T10:16:55;14.90;99.90
2106;DHT22;1059;52.548;13.408;2022-10-19T10:19:26;15.00;99.90
2106;DHT22;1059;52.548;13.408;2022-10-19T10:21:55;14.90;99.90
2106;DHT22;1059;52.548;13.408;2022-10-19T10:24:25;14.80;99.90
2106;DHT22;1059;52.548;13.408;2022-10-19T10:26:53;14.80;99.90
2106;DHT22;1059;52.548;13.408;2022-10-19T10:29:22;14.80;99.90
2106;DHT22;1059;52.548;13.408;2022-10-19T10:31:51;14.80;99.90
2106;DHT22;1059;52.548;13.408;2022-10-19T10:34:28;14.80;99.90
2106;DHT22;1059;52.548;13.408;2022-10-19T10:36:56;14.80;99.90
2106;DHT22;1059;52.548;13.408;2022-10-19T10:39:25;14.80;99.90
2106;DHT22;1059;52.548;13.408;2022-10-19T10:41:53;15.00;99.90
2106;DHT22;1059;52.548;13.408;2022-10-19T10:44:23;15.10;99.90
2106;DHT22;1059;52.548;13.408;2022-10-19T10:46:56;15.10;99.90
2106;DHT22;1059;52.548;13.408;2022-10-19T10:49:25;15.10;99.90
2106;DHT22;1059;52.548;13.408;2022-10-19T10:51:57;15.20;99.90
2106;DHT22;1059;52.548;13.408;2022-10-19T10:54:28;15.20;99.90
2106;DHT22;1059;52.548;13.408;2022-10-19T10:57:04;15.30;99.90
2106;DHT22;1059;52.548;13.408;2022-10-19T10:59:40;15.40;99.90
2106;DHT22;1059;52.548;13.408;2022-10-19T11:02:17;15.50;99.90
2106;DHT22;1059;52.548;13.408;2022-10-19T11:04:51;15.60;99.90
2106;DHT22;1059;52.548;13.408;2022-10-19T11:07:23;15.70;99.90
2106;DHT22;1059;52.548;13.408;2022-10-19T11:09:53;15.80;99.90
2106;DHT22;1059;52.548;13.408;2022-10-19T11:12:30;15.90;99.90
2106;DHT22;1059;52.548;13.408;2022-10-19T11:15:05;16.00;99.90
2106;DHT22;1059;52.548;13.408;2022-10-19T11:17:40;16.30;99.90
2106;DHT22;1059;52.548;13.408;2022-10-19T11:20:14;16.50;99.90
2106;DHT22;1059;52.548;13.408;2022-10-19T11:22:45;16.60;99.90
2106;DHT22;1059;52.548;13.408;2022-10-19T11:25:25;16.70;99.90
2106;DHT22;1059;52.548;13.408;2022-10-19T11:28:03;16.70;99.90
2106;DHT22;1059;52.548;13.408;2022-10-19T11:30:38;16.70;99.90
2106;DHT22;1059;52.548;13.408;2022-10-19T11:33:15;16.60;99.90
2106;DHT22;1059;52.548;13.408;2022-10-19T11:35:49;16.70;99.90
2106;DHT22;1059;52.548;13.408;2022-10-19T11:38:30;16.70;99.90
2106;DHT22;1059;52.548;13.408;2022-10-19T11:41:07;16.60;99.90
2106;DHT22;1059;52.548;13.408;2022-10-19T11:43:41;16.50;99.90
2106;DHT22;1059;52.548;13.408;2022-10-19T11:46:16;16.20;99.90
2106;DHT22;1059;52.548;13.408;2022-10-19T11:49:01;16.00;99.90
2106;DHT22;1059;52.548;13.408;2022-10-19T11:51:34;16.20;99.90
2106;DHT22;1059;52.548;13.408;2022-10-19T11:54:21;17.40;99.90
2106;DHT22;1059;52.548;13.408;2022-10-19T11:56:57;19.20;99.90
2106;DHT22;1059;52.548;13.408;2022-10-19T11:59:33;21.00;99.90
2106;DHT22;1059;52.548;13.408;2022-10-19T12:02:13;22.40;99.90
2106;DHT22;1059;52.548;13.408;2022-10-19T12:04:51;22.50;99.90
2106;DHT22;1059;52.548;13.408;2022-10-19T12:07:39;21.70;99.00
2106;DHT22;1059;52.548;13.408;2022-10-19T12:10:17;20.60;99.80
2106;DHT22;1059;52.548;13.408;2022-10-19T12:12:49;19.50;99.90
2106;DHT22;1059;52.548;13.408;2022-10-19T12:15:22;18.80;99.90
2106;DHT22;1059;52.548;13.408;2022-10-19T12:17:56;18.30;99.90
2106;DHT22;1059;52.548;13.408;2022-10-19T12:20:29;17.80;99.90
2106;DHT22;1059;52.548;13.408;2022-10-19T12:22:58;17.40;99.90
2106;DHT22;1059;52.548;13.408;2022-10-19T12:25:25;17.20;99.90
2106;DHT22;1059;52.548;13.408;2022-10-19T12:27:54;17.00;99.90
2106;DHT22;1059;52.548;13.408;2022-10-19T12:30:22;17.10;99.90
2106;DHT22;1059;52.548;13.408;2022-10-19T12:32:57;17.20;99.90
2106;DHT22;1059;52.548;13.408;2022-10-19T12:35:50;17.50;99.90
2106;DHT22;1059;52.548;13.408;2022-10-19T12:38:22;18.10;99.90
2106;DHT22;1059;52.548;13.408;2022-10-19T12:40:57;19.40;99.90
2106;DHT22;1059;52.548;13.408;2022-10-19T12:43:39;20.60;99.90
2106;DHT22;1059;52.548;13.408;2022-10-19T12:46:13;20.70;99.90
2106;DHT22;1059;52.548;13.408;2022-10-19T12:48:43;20.40;99.90
2106;DHT22;1059;52.548;13.408;2022-10-19T12:51:12;20.00;99.90
2106;DHT22;1059;52.548;13.408;2022-10-19T12:53:41;19.50;99.90
2106;DHT22;1059;52.548;13.408;2022-10-19T12:56:16;19.10;99.90
2106;DHT22;1059;52.548;13.408;2022-10-19T13:02:23;18.20;99.90
2106;DHT22;1059;52.548;13.408;2022-10-19T13:04:55;18.00;99.90
2106;DHT22;1059;52.548;13.408;2022-10-19T13:07:24;18.30;99.90
2106;DHT22;1059;52.548;13.408;2022-10-19T13:09:59;19.30;99.90
2106;DHT22;1059;52.548;13.408;2022-10-19T13:12:28;20.10;99.90
2106;DHT22;1059;52.548;13.408;2022-10-19T13:24:38;24.10;93.70
2106;DHT22;1059;52.548;13.408;2022-10-19T13:27:34;25.10;89.30
2106;DHT22;1059;52.548;13.408;2022-10-19T13:30:03;26.00;77.20
2106;DHT22;1059;52.548;13.408;2022-10-19T13:32:39;26.60;71.80
2106;DHT22;1059;52.548;13.408;2022-10-19T13:35:28;27.40;64.40
2106;DHT22;1059;52.548;13.408;2022-10-19T13:38:19;27.80;57.30
2106;DHT22;1059;52.548;13.408;2022-10-19T13:41:05;27.40;53.70
2106;DHT22;1059;52.548;13.408;2022-10-19T13:43:36;26.30;54.20
2106;DHT22;1059;52.548;13.408;2022-10-19T13:46:09;25.30;56.50
2106;DHT22;1059;52.548;13.408;2022-10-19T13:49:02;24.80;56.60
2106;DHT22;1059;52.548;13.408;2022-10-19T13:51:37;24.10;57.80
2106;DHT22;1059;52.548;13.408;2022-10-19T13:54:30;23.80;58.50
2106;DHT22;1059;52.548;13.408;2022-10-19T13:57:21;24.40;57.50
2106;DHT22;1059;52.548;13.408;2022-10-19T14:00:03;24.70;56.60
2106;DHT22;1059;52.548;13.408;2022-10-19T14:02:51;24.90;57.10
2106;DHT22;1059;52.548;13.408;2022-10-19T14:05:36;25.40;56.40
2106;DHT22;1059;52.548;13.408;2022-10-19T14:08:19;26.00;55.70
2106;DHT22;1059;52.548;13.408;2022-10-19T14:10:57;26.50;53.80
2106;DHT22;1059;52.548;13.408;2022-10-19T14:13:26;26.90;52.10
2106;DHT22;1059;52.548;13.408;2022-10-19T14:15:56;27.20;50.60
2106;DHT22;1059;52.548;13.408;2022-10-19T14:18:27;27.20;50.60
2106;DHT22;1059;52.548;13.408;2022-10-19T14:20:59;27.20;49.50
2106;DHT22;1059;52.548;13.408;2022-10-19T14:23:28;27.20;49.50
2106;DHT22;1059;52.548;13.408;2022-10-19T14:26:02;27.20;48.90
2106;DHT22;1059;52.548;13.408;2022-10-19T14:28:31;27.10;49.40
2106;DHT22;1059;52.548;13.408;2022-10-19T14:31:00;27.20;48.60
2106;DHT22;1059;52.548;13.408;2022-10-19T14:33:27;26.90;48.70
2106;DHT22;1059;52.548;13.408;2022-10-19T14:35:55;26.90;48.20
2106;DHT22;1059;52.548;13.408;2022-10-19T14:38:27;26.80;48.20
2106;DHT22;1059;52.548;13.408;2022-10-19T14:40:56;26.70;48.20
2106;DHT22;1059;52.548;13.408;2022-10-19T14:43:24;26.70;48.80
2106;DHT22;1059;52.548;13.408;2022-10-19T14:46:10;26.50;47.90
2106;DHT22;1059;52.548;13.408;2022-10-19T14:48:39;26.40;48.80
2106;DHT22;1059;52.548;13.408;2022-10-19T14:51:15;26.30;48.80
2106;DHT22;1059;52.548;13.408;2022-10-19T14:53:48;26.10;49.20
2106;DHT22;1059;52.548;13.408;2022-10-19T14:56:20;26.00;49.50
2106;DHT22;1059;52.548;13.408;2022-10-19T14:58:53;25.60;50.10
2106;DHT22;1059;52.548;13.408;2022-10-19T15:01:22;25.30;50.90
2106;DHT22;1059;52.548;13.408;2022-10-19T15:03:50;25.00;50.30
2106;DHT22;1059;52.548;13.408;2022-10-19T15:06:20;24.80;50.90
2106;DHT22;1059;52.548;13.408;2022-10-19T15:08:50;24.50;50.90
2106;DHT22;1059;52.548;13.408;2022-10-19T15:11:23;24.10;51.90
2106;DHT22;1059;52.548;13.408;2022-10-19T15:13:57;23.80;52.10
2106;DHT22;1059;52.548;13.408;2022-10-19T15:16:33;23.30;52.80
2106;DHT22;1059;52.548;13.408;2022-10-19T15:19:18;22.80;54.10
2106;DHT22;1059;52.548;13.408;2022-10-19T15:22:05;22.00;55.40
2106;DHT22;1059;52.548;13.408;2022-10-19T15:24:32;21.30;56.90
2106;DHT22;1059;52.548;13.408;2022-10-19T15:27:08;20.50;58.30
2106;DHT22;1059;52.548;13.408;2022-10-19T15:29:36;19.90;60.00
2106;DHT22;1059;52.548;13.408;2022-10-19T15:32:15;19.40;62.40
2106;DHT22;1059;52.548;13.408;2022-10-19T15:34:44;18.90;66.30
2106;DHT22;1059;52.548;13.408;2022-10-19T15:37:17;18.30;69.30
2106;DHT22;1059;52.548;13.408;2022-10-19T15:39:44;17.80;73.90
2106;DHT22;1059;52.548;13.408;2022-10-19T15:42:22;17.40;78.80
2106;DHT22;1059;52.548;13.408;2022-10-19T15:44:49;17.00;84.40
2106;DHT22;1059;52.548;13.408;2022-10-19T15:47:23;16.60;90.00
2106;DHT22;1059;52.548;13.408;2022-10-19T15:49:54;16.30;92.90
2106;DHT22;1059;52.548;13.408;2022-10-19T15:52:22;16.10;95.80
2106;DHT22;1059;52.548;13.408;2022-10-19T15:54:53;15.80;98.50
2106;DHT22;1059;52.548;13.408;2022-10-19T15:57:26;15.70;99.90
2106;DHT22;1059;52.548;13.408;2022-10-19T15:59:54;15.50;99.90
2106;DHT22;1059;52.548;13.408;2022-10-19T16:02:23;15.30;99.90
2106;DHT22;1059;52.548;13.408;2022-10-19T16:04:50;15.20;99.90
2106;DHT22;1059;52.548;13.408;2022-10-19T16:07:22;15.10;99.90
2106;DHT22;1059;52.548;13.408;2022-10-19T16:09:50;15.00;99.90
2106;DHT22;1059;52.548;13.408;2022-10-19T16:12:17;14.90;99.90
2106;DHT22;1059;52.548;13.408;2022-10-19T16:14:44;14.80;99.90
2106;DHT22;1059;52.548;13.408;2022-10-19T16:17:12;14.70;99.90
2106;DHT22;1059;52.548;13.408;2022-10-19T16:19:41;14.70;99.90
2106;DHT22;1059;52.548;13.408;2022-10-19T16:22:08;14.60;99.90
2106;DHT22;1059;52.548;13.408;2022-10-19T16:24:35;14.50;99.90